sensor_id;sensor_type;location;lat;lon;timestamp;temperature;humidity
31639;DHT22;18248;51.522;7.020;2022-07-18T00:00:40;19.10;94.70
31639;DHT22;18248;51.522;7.020;2022-07-18T00:03:38;19.00;94.90
31639;DHT22;18248;51.522;7.020;2022-07-18T00:06:38;18.90;95.20
31639;DHT22;18248;51.522;7.020;2022-07-18T00:09:38;19.00;95.40
31639;DHT22;18248;51.522;7.020;2022-07-18T00:12:36;19.00;95.90
31639;DHT22;18248;51.522;7.020;2022-07-18T00:15:35;18.90;97.40
31639;DHT22;18248;51.522;7.020;2022-07-18T00:18:34;18.80;98.10
31639;DHT22;18248;51.522;7.020;2022-07-18T00:21:33;18.80;99.40
31639;DHT22;18248;51.522;7.020;2022-07-18T00:24:32;18.70;99.90
31639;DHT22;18248;51.522;7.020;2022-07-18T00:27:33;18.70;99.90
31639;DHT22;18248;51.522;7.020;2022-07-18T00:30:31;18.70;99.90
31639;DHT22;18248;51.522;7.020;2022-07-18T00:33:30;18.60;99.90
31639;DHT22;18248;51.522;7.020;2022-07-18T00:36:30;18.50;99.90
31639;DHT22;18248;51.522;7.020;2022-07-18T00:39:29;18.40;99.90
31639;DHT22;18248;51.522;7.020;2022-07-18T00:42:27;18.40;99.90
31639;DHT22;18248;51.522;7.020;2022-07-18T00:45:26;18.50;99.90
31639;DHT22;18248;51.522;7.020;2022-07-18T00:48:25;18.50;99.90
31639;DHT22;18248;51.522;7.020;2022-07-18T00:51:24;18.50;99.90
31639;DHT22;18248;51.522;7.020;2022-07-18T00:54:22;18.50;99.90
31639;DHT22;18248;51.522;7.020;2022-07-18T00:57:21;18.40;99.90
31639;DHT22;18248;51.522;7.020;2022-07-18T01:00:20;18.40;99.90
31639;DHT22;18248;51.522;7.020;2022-07-18T01:03:37;18.20;99.90
31639;DHT22;18248;51.522;7.020;2022-07-18T01:06:36;18.10;99.90
31639;DHT22;18248;51.522;7.020;2022-07-18T01:09:36;18.10;99.90
31639;DHT22;18248;51.522;7.020;2022-07-18T01:12:34;18.10;99.90
31639;DHT22;18248;51.522;7.020;2022-07-18T01:15:33;18.00;99.90
31639;DHT22;18248;51.522;7.020;2022-07-18T01:18:31;17.90;99.90
31639;DHT22;18248;51.522;7.020;2022-07-18T01:21:30;17.90;99.90
31639;DHT22;18248;51.522;7.020;2022-07-18T01:24:29;17.90;99.90
31639;DHT22;18248;51.522;7.020;2022-07-18T01:27:28;17.90;99.90
31639;DHT22;18248;51.522;7.020;2022-07-18T01:30:27;17.80;99.90
31639;DHT22;18248;51.522;7.020;2022-07-18T01:33:25;17.70;99.90
31639;DHT22;18248;51.522;7.020;2022-07-18T01:36:24;17.70;99.90
31639;DHT22;18248;51.522;7.020;2022-07-18T01:39:22;17.70;99.90
31639;DHT22;18248;51.522;7.020;2022-07-18T01:42:21;17.60;99.90
31639;DHT22;18248;51.522;7.020;2022-07-18T01:45:20;17.60;99.90
31639;DHT22;18248;51.522;7.020;2022-07-18T01:48:19;17.60;99.90
31639;DHT22;18248;51.522;7.020;2022-07-18T01:51:18;17.60;99.90
31639;DHT22;18248;51.522;7.020;2022-07-18T01:54:20;17.50;99.90
31639;DHT22;18248;51.522;7.020;2022-07-18T01:57:18;17.60;99.90
31639;DHT22;18248;51.522;7.020;2022-07-18T02:00:17;17.60;99.90
31639;DHT22;18248;51.522;7.020;2022-07-18T02:03:16;17.50;99.90
31639;DHT22;18248;51.522;7.020;2022-07-18T02:06:14;17.50;99.90
31639;DHT22;18248;51.522;7.020;2022-07-18T02:09:13;17.40;99.90
31639;DHT22;18248;51.522;7.020;2022-07-18T02:12:11;17.30;99.90
31639;DHT22;18248;51.522;7.020;2022-07-18T02:15:12;17.40;99.90
31639;DHT22;18248;51.522;7.020;2022-07-18T02:18:11;17.40;99.90
31639;DHT22;18248;51.522;7.020;2022-07-18T02:21:09;17.40;99.90
31639;DHT22;18248;51.522;7.020;2022-07-18T02:24:08;17.50;99.90
31639;DHT22;18248;51.522;7.020;2022-07-18T02:27:07;17.50;99.90
31639;DHT22;18248;51.522;7.020;2022-07-18T02:30:08;17.40;99.90
31639;DHT22;18248;51.522;7.020;2022-07-18T02:33:06;17.30;99.90
31639;DHT22;18248;51.522;7.020;2022-07-18T02:36:05;17.30;99.90
31639;DHT22;18248;51.522;7.020;2022-07-18T02:39:05;17.20;99.90
31639;DHT22;18248;51.522;7.020;2022-07-18T02:42:04;17.20;99.90
31639;DHT22;18248;51.522;7.020;2022-07-18T02:45:06;17.10;99.90
31639;DHT22;18248;51.522;7.020;2022-07-18T02:48:06;17.00;99.90
31639;DHT22;18248;51.522;7.020;2022-07-18T02:51:04;17.00;99.90
31639;DHT22;18248;51.522;7.020;2022-07-18T02:54:03;17.00;99.90
31639;DHT22;18248;51.522;7.020;2022-07-18T02:57:02;17.00;99.90
31639;DHT22;18248;51.522;7.020;2022-07-18T03:00:03;17.10;99.90
31639;DHT22;18248;51.522;7.020;2022-07-18T03:03:02;17.00;99.90
31639;DHT22;18248;51.522;7.020;2022-07-18T03:06:01;17.00;99.90
31639;DHT22;18248;51.522;7.020;2022-07-18T03:08:59;17.00;99.90
31639;DHT22;18248;51.522;7.020;2022-07-18T03:11:58;17.00;99.90
31639;DHT22;18248;51.522;7.020;2022-07-18T03:14:56;17.00;99.90
31639;DHT22;18248;51.522;7.020;2022-07-18T03:17:55;16.90;99.90
31639;DHT22;18248;51.522;7.020;2022-07-18T03:20:53;16.80;99.90
31639;DHT22;18248;51.522;7.020;2022-07-18T03:23:52;16.80;99.90
31639;DHT22;18248;51.522;7.020;2022-07-18T03:26:51;16.80;99.90
31639;DHT22;18248;51.522;7.020;2022-07-18T03:29:50;16.80;99.90
31639;DHT22;18248;51.522;7.020;2022-07-18T03:32:48;16.70;99.90
31639;DHT22;18248;51.522;7.020;2022-07-18T03:35:48;16.60;99.90
31639;DHT22;18248;51.522;7.020;2022-07-18T03:38:47;16.60;99.90
31639;DHT22;18248;51.522;7.020;2022-07-18T03:41:45;16.50;99.90
31639;DHT22;18248;51.522;7.020;2022-07-18T03:44:44;16.60;99.90
31639;DHT22;18248;51.522;7.020;2022-07-18T03:47:44;16.50;99.90
31639;DHT22;18248;51.522;7.020;2022-07-18T03:50:42;16.50;99.90
31639;DHT22;18248;51.522;7.020;2022-07-18T03:53:41;16.50;99.90
31639;DHT22;18248;51.522;7.020;2022-07-18T03:56:39;16.60;99.90
31639;DHT22;18248;51.522;7.020;2022-07-18T03:59:38;16.40;99.90
31639;DHT22;18248;51.522;7.020;2022-07-18T04:02:45;16.50;99.90
31639;DHT22;18248;51.522;7.020;2022-07-18T04:05:44;16.60;99.90
31639;DHT22;18248;51.522;7.020;2022-07-18T04:08:43;16.60;99.90
31639;DHT22;18248;51.522;7.020;2022-07-18T04:11:42;16.60;99.90
31639;DHT22;18248;51.522;7.020;2022-07-18T04:14:40;16.60;99.90
31639;DHT22;18248;51.522;7.020;2022-07-18T04:17:39;16.60;99.90
31639;DHT22;18248;51.522;7.020;2022-07-18T04:20:37;16.60;99.90
31639;DHT22;18248;51.522;7.020;2022-07-18T04:23:37;16.60;99.90
31639;DHT22;18248;51.522;7.020;2022-07-18T04:26:35;16.60;99.90
31639;DHT22;18248;51.522;7.020;2022-07-18T04:29:35;16.70;99.90
31639;DHT22;18248;51.522;7.020;2022-07-18T04:32:36;16.60;99.90
31639;DHT22;18248;51.522;7.020;2022-07-18T04:35:35;16.70;99.90
31639;DHT22;18248;51.522;7.020;2022-07-18T04:38:34;16.80;99.90
31639;DHT22;18248;51.522;7.020;2022-07-18T04:41:35;16.90;99.90
31639;DHT22;18248;51.522;7.020;2022-07-18T04:44:34;16.90;99.90
31639;DHT22;18248;51.522;7.020;2022-07-18T04:47:32;16.90;99.90
31639;DHT22;18248;51.522;7.020;2022-07-18T04:50:31;17.00;99.90
31639;DHT22;18248;51.522;7.020;2022-07-18T04:53:30;17.00;99.90
31639;DHT22;18248;51.522;7.020;2022-07-18T04:56:28;17.00;99.90
31639;DHT22;18248;51.522;7.020;2022-07-18T04:59:27;17.20;99.90
31639;DHT22;18248;51.522;7.020;2022-07-18T05:02:25;17.30;99.90
31639;DHT22;18248;51.522;7.020;2022-07-18T05:05:26;17.40;99.90
31639;DHT22;18248;51.522;7.020;2022-07-18T05:08:25;17.50;99.90
31639;DHT22;18248;51.522;7.020;2022-07-18T05:11:25;17.60;99.90
31639;DHT22;18248;51.522;7.020;2022-07-18T05:14:24;17.80;99.90
31639;DHT22;18248;51.522;7.020;2022-07-18T05:17:23;17.90;99.90
31639;DHT22;18248;51.522;7.020;2022-07-18T05:20:23;17.90;99.90
31639;DHT22;18248;51.522;7.020;2022-07-18T05:23:22;18.00;99.90
31639;DHT22;18248;51.522;7.020;2022-07-18T05:26:23;18.10;99.90
31639;DHT22;18248;51.522;7.020;2022-07-18T05:29:22;18.30;99.90
31639;DHT22;18248;51.522;7.020;2022-07-18T05:32:20;18.40;99.90
31639;DHT22;18248;51.522;7.020;2022-07-18T05:35:19;18.50;99.90
31639;DHT22;18248;51.522;7.020;2022-07-18T05:38:18;18.50;99.90
31639;DHT22;18248;51.522;7.020;2022-07-18T05:41:17;18.60;99.90
31639;DHT22;18248;51.522;7.020;2022-07-18T05:44:15;18.70;99.90
31639;DHT22;18248;51.522;7.020;2022-07-18T05:47:14;18.80;99.90
31639;DHT22;18248;51.522;7.020;2022-07-18T05:50:12;18.90;99.90
31639;DHT22;18248;51.522;7.020;2022-07-18T05:53:11;19.00;99.90
31639;DHT22;18248;51.522;7.020;2022-07-18T05:56:10;19.20;99.90
31639;DHT22;18248;51.522;7.020;2022-07-18T05:59:09;19.40;99.90
31639;DHT22;18248;51.522;7.020;2022-07-18T06:02:07;19.80;99.90
31639;DHT22;18248;51.522;7.020;2022-07-18T06:05:07;21.00;99.90
31639;DHT22;18248;51.522;7.020;2022-07-18T06:08:06;22.60;99.90
31639;DHT22;18248;51.522;7.020;2022-07-18T06:11:05;24.20;99.90
31639;DHT22;18248;51.522;7.020;2022-07-18T06:14:05;25.80;99.90
31639;DHT22;18248;51.522;7.020;2022-07-18T06:17:25;27.30;99.90
31639;DHT22;18248;51.522;7.020;2022-07-18T06:24:16;29.50;92.20
31639;DHT22;18248;51.522;7.020;2022-07-18T06:27:14;30.80;90.90
31639;DHT22;18248;51.522;7.020;2022-07-18T06:30:13;31.30;84.00
31639;DHT22;18248;51.522;7.020;2022-07-18T06:33:11;32.20;77.00
31639;DHT22;18248;51.522;7.020;2022-07-18T06:36:11;33.30;71.60
31639;DHT22;18248;51.522;7.020;2022-07-18T06:39:11;33.90;66.40
31639;DHT22;18248;51.522;7.020;2022-07-18T06:42:10;34.30;62.80
31639;DHT22;18248;51.522;7.020;2022-07-18T06:45:09;34.60;60.40
31639;DHT22;18248;51.522;7.020;2022-07-18T06:48:08;35.10;58.90
31639;DHT22;18248;51.522;7.020;2022-07-18T06:51:08;34.80;56.60
31639;DHT22;18248;51.522;7.020;2022-07-18T06:54:07;34.60;57.70
31639;DHT22;18248;51.522;7.020;2022-07-18T06:57:05;34.80;56.40
31639;DHT22;18248;51.522;7.020;2022-07-18T07:00:09;35.30;55.10
31639;DHT22;18248;51.522;7.020;2022-07-18T07:03:08;35.20;55.30
31639;DHT22;18248;51.522;7.020;2022-07-18T07:06:06;36.00;54.60
31639;DHT22;18248;51.522;7.020;2022-07-18T07:09:05;35.80;52.90
31639;DHT22;18248;51.522;7.020;2022-07-18T07:12:04;35.60;52.90
31639;DHT22;18248;51.522;7.020;2022-07-18T07:15:03;35.60;53.00
31639;DHT22;18248;51.522;7.020;2022-07-18T07:18:01;35.40;52.30
31639;DHT22;18248;51.522;7.020;2022-07-18T07:21:00;35.60;53.40
31639;DHT22;18248;51.522;7.020;2022-07-18T07:23:58;36.40;52.50
31639;DHT22;18248;51.522;7.020;2022-07-18T07:26:57;37.30;51.30
31639;DHT22;18248;51.522;7.020;2022-07-18T07:29:55;37.90;50.60
31639;DHT22;18248;51.522;7.020;2022-07-18T07:32:54;38.20;49.50
31639;DHT22;18248;51.522;7.020;2022-07-18T07:35:52;38.40;48.00
31639;DHT22;18248;51.522;7.020;2022-07-18T07:38:51;38.40;48.50
31639;DHT22;18248;51.522;7.020;2022-07-18T07:41:49;38.50;47.50
31639;DHT22;18248;51.522;7.020;2022-07-18T07:44:49;39.00;47.30
31639;DHT22;18248;51.522;7.020;2022-07-18T07:47:47;39.60;46.50
31639;DHT22;18248;51.522;7.020;2022-07-18T07:50:47;39.80;45.90
31639;DHT22;18248;51.522;7.020;2022-07-18T07:53:46;40.00;44.50
31639;DHT22;18248;51.522;7.020;2022-07-18T07:56:44;40.10;44.20
31639;DHT22;18248;51.522;7.020;2022-07-18T07:59:43;40.40;43.80
31639;DHT22;18248;51.522;7.020;2022-07-18T08:02:59;40.50;43.50
31639;DHT22;18248;51.522;7.020;2022-07-18T08:05:59;40.40;42.10
31639;DHT22;18248;51.522;7.020;2022-07-18T08:08:58;40.40;42.40
31639;DHT22;18248;51.522;7.020;2022-07-18T08:11:59;39.90;43.00
31639;DHT22;18248;51.522;7.020;2022-07-18T08:14:58;40.30;42.60
31639;DHT22;18248;51.522;7.020;2022-07-18T08:17:57;40.20;41.20
31639;DHT22;18248;51.522;7.020;2022-07-18T08:20:55;40.10;41.20
31639;DHT22;18248;51.522;7.020;2022-07-18T08:23:54;40.50;41.40
31639;DHT22;18248;51.522;7.020;2022-07-18T08:26:54;40.60;40.40
31639;DHT22;18248;51.522;7.020;2022-07-18T08:29:52;40.60;40.30
31639;DHT22;18248;51.522;7.020;2022-07-18T08:32:52;40.40;40.00
31639;DHT22;18248;51.522;7.020;2022-07-18T08:35:52;39.80;40.10
31639;DHT22;18248;51.522;7.020;2022-07-18T08:38:51;39.60;39.90
31639;DHT22;18248;51.522;7.020;2022-07-18T08:41:50;39.80;40.00
31639;DHT22;18248;51.522;7.020;2022-07-18T08:44:49;39.50;39.00
31639;DHT22;18248;51.522;7.020;2022-07-18T08:47:49;38.80;39.10
31639;DHT22;18248;51.522;7.020;2022-07-18T08:50:48;38.40;39.40
31639;DHT22;18248;51.522;7.020;2022-07-18T08:53:50;38.10;40.20
31639;DHT22;18248;51.522;7.020;2022-07-18T08:56:50;37.90;40.10
31639;DHT22;18248;51.522;7.020;2022-07-18T08:59:49;37.50;40.20
31639;DHT22;18248;51.522;7.020;2022-07-18T09:02:57;37.20;40.40
31639;DHT22;18248;51.522;7.020;2022-07-18T09:06:06;36.60;40.50
31639;DHT22;18248;51.522;7.020;2022-07-18T09:09:06;36.00;41.30
31639;DHT22;18248;51.522;7.020;2022-07-18T09:12:08;35.70;41.60
31639;DHT22;18248;51.522;7.020;2022-07-18T09:15:09;35.60;42.40
31639;DHT22;18248;51.522;7.020;2022-07-18T09:18:12;35.40;42.50
31639;DHT22;18248;51.522;7.020;2022-07-18T09:24:12;34.60;42.80
31639;DHT22;18248;51.522;7.020;2022-07-18T09:27:40;34.40;42.90
31639;DHT22;18248;51.522;7.020;2022-07-18T09:30:38;34.10;43.70
31639;DHT22;18248;51.522;7.020;2022-07-18T09:33:37;34.00;43.70
31639;DHT22;18248;51.522;7.020;2022-07-18T09:36:53;34.10;44.00
31639;DHT22;18248;51.522;7.020;2022-07-18T09:39:54;34.40;43.30
31639;DHT22;18248;51.522;7.020;2022-07-18T09:43:15;34.20;43.40
31639;DHT22;18248;51.522;7.020;2022-07-18T09:46:15;34.10;43.60
31639;DHT22;18248;51.522;7.020;2022-07-18T09:49:13;33.90;43.40
31639;DHT22;18248;51.522;7.020;2022-07-18T09:52:12;34.00;43.60
31639;DHT22;18248;51.522;7.020;2022-07-18T09:55:11;34.10;43.20
31639;DHT22;18248;51.522;7.020;2022-07-18T09:58:19;34.10;43.10
31639;DHT22;18248;51.522;7.020;2022-07-18T10:01:19;34.00;42.90
31639;DHT22;18248;51.522;7.020;2022-07-18T10:04:17;34.00;43.10
31639;DHT22;18248;51.522;7.020;2022-07-18T10:07:16;34.10;43.10
31639;DHT22;18248;51.522;7.020;2022-07-18T10:10:15;34.00;43.50
31639;DHT22;18248;51.522;7.020;2022-07-18T10:13:16;33.90;43.10
31639;DHT22;18248;51.522;7.020;2022-07-18T10:16:15;34.00;43.20
31639;DHT22;18248;51.522;7.020;2022-07-18T10:19:15;33.90;43.20
31639;DHT22;18248;51.522;7.020;2022-07-18T10:22:13;34.10;43.80
31639;DHT22;18248;51.522;7.020;2022-07-18T10:25:13;34.10;43.50
31639;DHT22;18248;51.522;7.020;2022-07-18T10:28:13;34.20;44.20
31639;DHT22;18248;51.522;7.020;2022-07-18T10:31:15;34.30;43.50
31639;DHT22;18248;51.522;7.020;2022-07-18T10:34:14;34.40;43.20
31639;DHT22;18248;51.522;7.020;2022-07-18T10:37:13;34.40;42.60
31639;DHT22;18248;51.522;7.020;2022-07-18T10:40:29;34.50;42.50
31639;DHT22;18248;51.522;7.020;2022-07-18T10:50:03;34.60;41.60
31639;DHT22;18248;51.522;7.020;2022-07-18T10:53:01;34.70;42.40
31639;DHT22;18248;51.522;7.020;2022-07-18T10:56:00;34.80;42.20
31639;DHT22;18248;51.522;7.020;2022-07-18T10:58:59;34.80;41.80
31639;DHT22;18248;51.522;7.020;2022-07-18T11:01:58;35.00;42.50
31639;DHT22;18248;51.522;7.020;2022-07-18T11:04:57;35.10;43.00
31639;DHT22;18248;51.522;7.020;2022-07-18T11:11:04;35.10;41.40
31639;DHT22;18248;51.522;7.020;2022-07-18T11:14:03;35.10;41.10
31639;DHT22;18248;51.522;7.020;2022-07-18T11:17:04;35.10;41.10
31639;DHT22;18248;51.522;7.020;2022-07-18T11:20:23;35.00;40.40
31639;DHT22;18248;51.522;7.020;2022-07-18T11:23:24;35.10;40.50
31639;DHT22;18248;51.522;7.020;2022-07-18T11:26:23;35.30;41.90
31639;DHT22;18248;51.522;7.020;2022-07-18T11:29:22;35.40;40.80
31639;DHT22;18248;51.522;7.020;2022-07-18T11:32:21;35.30;40.30
31639;DHT22;18248;51.522;7.020;2022-07-18T11:35:22;35.10;40.10
31639;DHT22;18248;51.522;7.020;2022-07-18T11:38:21;35.20;40.40
31639;DHT22;18248;51.522;7.020;2022-07-18T11:41:21;35.30;40.60
31639;DHT22;18248;51.522;7.020;2022-07-18T11:44:20;35.40;40.80
31639;DHT22;18248;51.522;7.020;2022-07-18T11:47:25;35.70;40.60
31639;DHT22;18248;51.522;7.020;2022-07-18T11:50:35;35.60;41.10
31639;DHT22;18248;51.522;7.020;2022-07-18T11:53:34;35.60;40.00
31639;DHT22;18248;51.522;7.020;2022-07-18T11:56:33;35.60;40.60
31639;DHT22;18248;51.522;7.020;2022-07-18T11:59:42;35.80;40.80
31639;DHT22;18248;51.522;7.020;2022-07-18T12:02:42;36.00;41.10
31639;DHT22;18248;51.522;7.020;2022-07-18T12:05:46;36.10;40.60
31639;DHT22;18248;51.522;7.020;2022-07-18T12:08:52;36.20;40.20
31639;DHT22;18248;51.522;7.020;2022-07-18T12:11:51;36.20;40.60
31639;DHT22;18248;51.522;7.020;2022-07-18T12:15:02;36.10;40.40
31639;DHT22;18248;51.522;7.020;2022-07-18T12:18:01;36.20;40.10
31639;DHT22;18248;51.522;7.020;2022-07-18T12:21:10;36.30;40.10
31639;DHT22;18248;51.522;7.020;2022-07-18T12:24:23;36.30;40.00
31639;DHT22;18248;51.522;7.020;2022-07-18T12:27:25;36.20;39.80
31639;DHT22;18248;51.522;7.020;2022-07-18T12:30:25;36.30;39.90
31639;DHT22;18248;51.522;7.020;2022-07-18T12:33:25;36.40;40.10
31639;DHT22;18248;51.522;7.020;2022-07-18T12:36:24;36.10;40.10
31639;DHT22;18248;51.522;7.020;2022-07-18T12:39:31;36.30;40.10
31639;DHT22;18248;51.522;7.020;2022-07-18T12:42:35;36.50;40.40
31639;DHT22;18248;51.522;7.020;2022-07-18T12:45:34;36.50;40.50
31639;DHT22;18248;51.522;7.020;2022-07-18T12:48:34;36.70;40.70
31639;DHT22;18248;51.522;7.020;2022-07-18T12:51:34;36.80;40.90
31639;DHT22;18248;51.522;7.020;2022-07-18T12:54:32;36.90;41.00
31639;DHT22;18248;51.522;7.020;2022-07-18T12:57:31;36.90;40.00
31639;DHT22;18248;51.522;7.020;2022-07-18T13:00:30;36.70;41.20
31639;DHT22;18248;51.522;7.020;2022-07-18T13:03:29;36.70;40.50
31639;DHT22;18248;51.522;7.020;2022-07-18T13:06:27;36.70;40.50
31639;DHT22;18248;51.522;7.020;2022-07-18T13:09:27;36.80;40.60
31639;DHT22;18248;51.522;7.020;2022-07-18T13:12:26;36.90;40.50
31639;DHT22;18248;51.522;7.020;2022-07-18T13:15:24;37.10;40.20
31639;DHT22;18248;51.522;7.020;2022-07-18T13:18:23;37.10;40.10
31639;DHT22;18248;51.522;7.020;2022-07-18T13:21:21;37.20;40.20
31639;DHT22;18248;51.522;7.020;2022-07-18T13:24:20;37.20;40.70
31639;DHT22;18248;51.522;7.020;2022-07-18T13:27:18;37.20;40.00
31639;DHT22;18248;51.522;7.020;2022-07-18T13:30:18;37.20;40.10
31639;DHT22;18248;51.522;7.020;2022-07-18T13:33:16;37.30;40.30
31639;DHT22;18248;51.522;7.020;2022-07-18T13:36:15;37.30;39.80
31639;DHT22;18248;51.522;7.020;2022-07-18T13:39:13;37.40;39.90
31639;DHT22;18248;51.522;7.020;2022-07-18T13:42:12;37.40;40.20
31639;DHT22;18248;51.522;7.020;2022-07-18T13:45:11;37.40;39.40
31639;DHT22;18248;51.522;7.020;2022-07-18T13:48:11;37.50;40.10
31639;DHT22;18248;51.522;7.020;2022-07-18T13:51:10;37.70;40.10
31639;DHT22;18248;51.522;7.020;2022-07-18T13:54:09;37.70;40.00
31639;DHT22;18248;51.522;7.020;2022-07-18T13:57:08;37.80;40.30
31639;DHT22;18248;51.522;7.020;2022-07-18T14:00:08;37.90;40.50
31639;DHT22;18248;51.522;7.020;2022-07-18T14:03:08;37.90;39.20
31639;DHT22;18248;51.522;7.020;2022-07-18T14:06:07;37.90;39.60
31639;DHT22;18248;51.522;7.020;2022-07-18T14:09:05;38.10;39.70
31639;DHT22;18248;51.522;7.020;2022-07-18T14:12:04;38.10;39.70
31639;DHT22;18248;51.522;7.020;2022-07-18T14:15:03;38.10;39.30
31639;DHT22;18248;51.522;7.020;2022-07-18T14:18:02;38.10;39.40
31639;DHT22;18248;51.522;7.020;2022-07-18T14:21:03;38.20;39.80
31639;DHT22;18248;51.522;7.020;2022-07-18T14:24:02;38.20;39.50
31639;DHT22;18248;51.522;7.020;2022-07-18T14:27:00;38.20;39.70
31639;DHT22;18248;51.522;7.020;2022-07-18T14:29:59;38.10;39.60
31639;DHT22;18248;51.522;7.020;2022-07-18T14:32:58;38.00;38.80
31639;DHT22;18248;51.522;7.020;2022-07-18T14:35:57;38.00;39.90
31639;DHT22;18248;51.522;7.020;2022-07-18T14:38:55;38.00;39.10
31639;DHT22;18248;51.522;7.020;2022-07-18T14:41:54;38.00;39.30
31639;DHT22;18248;51.522;7.020;2022-07-18T14:44:53;38.10;39.80
31639;DHT22;18248;51.522;7.020;2022-07-18T14:47:52;37.90;39.10
31639;DHT22;18248;51.522;7.020;2022-07-18T14:50:50;37.80;40.30
31639;DHT22;18248;51.522;7.020;2022-07-18T14:53:49;37.80;40.30
31639;DHT22;18248;51.522;7.020;2022-07-18T14:56:47;38.00;39.50
31639;DHT22;18248;51.522;7.020;2022-07-18T14:59:46;38.00;39.50
31639;DHT22;18248;51.522;7.020;2022-07-18T15:02:46;37.90;39.40
31639;DHT22;18248;51.522;7.020;2022-07-18T15:05:44;37.80;39.60
31639;DHT22;18248;51.522;7.020;2022-07-18T15:08:43;37.90;39.00
31639;DHT22;18248;51.522;7.020;2022-07-18T15:11:41;37.90;39.70
31639;DHT22;18248;51.522;7.020;2022-07-18T15:14:40;38.10;40.00
31639;DHT22;18248;51.522;7.020;2022-07-18T15:17:39;38.10;39.20
31639;DHT22;18248;51.522;7.020;2022-07-18T15:20:41;38.20;40.20
31639;DHT22;18248;51.522;7.020;2022-07-18T15:23:40;38.40;39.70
31639;DHT22;18248;51.522;7.020;2022-07-18T15:26:38;38.60;39.10
31639;DHT22;18248;51.522;7.020;2022-07-18T15:29:37;38.60;39.10
31639;DHT22;18248;51.522;7.020;2022-07-18T15:32:36;38.50;39.10
31639;DHT22;18248;51.522;7.020;2022-07-18T15:35:34;38.60;39.40
31639;DHT22;18248;51.522;7.020;2022-07-18T15:38:33;38.60;38.70
31639;DHT22;18248;51.522;7.020;2022-07-18T15:41:31;38.50;40.00
31639;DHT22;18248;51.522;7.020;2022-07-18T15:44:30;38.50;39.70
31639;DHT22;18248;51.522;7.020;2022-07-18T15:47:35;38.50;39.40
31639;DHT22;18248;51.522;7.020;2022-07-18T15:50:34;38.20;39.30
31639;DHT22;18248;51.522;7.020;2022-07-18T15:53:32;38.20;39.60
31639;DHT22;18248;51.522;7.020;2022-07-18T15:56:31;38.40;39.40
31639;DHT22;18248;51.522;7.020;2022-07-18T15:59:29;38.60;40.20
31639;DHT22;18248;51.522;7.020;2022-07-18T16:02:28;38.60;40.00
31639;DHT22;18248;51.522;7.020;2022-07-18T16:05:27;38.60;40.30
31639;DHT22;18248;51.522;7.020;2022-07-18T16:08:27;38.70;38.90
31639;DHT22;18248;51.522;7.020;2022-07-18T16:11:25;38.80;39.90
31639;DHT22;18248;51.522;7.020;2022-07-18T16:14:24;38.90;40.00
31639;DHT22;18248;51.522;7.020;2022-07-18T16:17:22;39.00;40.20
31639;DHT22;18248;51.522;7.020;2022-07-18T16:20:21;38.80;40.10
31639;DHT22;18248;51.522;7.020;2022-07-18T16:23:20;38.90;39.90
31639;DHT22;18248;51.522;7.020;2022-07-18T16:26:18;38.90;39.30
31639;DHT22;18248;51.522;7.020;2022-07-18T16:29:17;38.90;38.80
31639;DHT22;18248;51.522;7.020;2022-07-18T16:32:15;38.90;39.80
31639;DHT22;18248;51.522;7.020;2022-07-18T16:35:14;38.80;39.40
31639;DHT22;18248;51.522;7.020;2022-07-18T16:38:13;38.90;38.90
31639;DHT22;18248;51.522;7.020;2022-07-18T16:41:11;38.80;38.40
31639;DHT22;18248;51.522;7.020;2022-07-18T16:44:10;38.60;38.50
31639;DHT22;18248;51.522;7.020;2022-07-18T16:47:10;38.60;38.80
31639;DHT22;18248;51.522;7.020;2022-07-18T16:50:09;38.60;38.00
31639;DHT22;18248;51.522;7.020;2022-07-18T16:53:11;38.40;38.80
31639;DHT22;18248;51.522;7.020;2022-07-18T16:56:10;38.20;39.10
31639;DHT22;18248;51.522;7.020;2022-07-18T16:59:10;38.00;38.70
31639;DHT22;18248;51.522;7.020;2022-07-18T17:02:09;38.00;39.30
31639;DHT22;18248;51.522;7.020;2022-07-18T17:05:08;37.90;39.10
31639;DHT22;18248;51.522;7.020;2022-07-18T17:08:07;37.80;40.00
31639;DHT22;18248;51.522;7.020;2022-07-18T17:11:06;37.80;40.10
31639;DHT22;18248;51.522;7.020;2022-07-18T17:14:05;37.80;39.80
31639;DHT22;18248;51.522;7.020;2022-07-18T17:17:04;37.70;40.80
31639;DHT22;18248;51.522;7.020;2022-07-18T17:20:05;37.60;40.80
31639;DHT22;18248;51.522;7.020;2022-07-18T17:23:11;37.50;41.10
31639;DHT22;18248;51.522;7.020;2022-07-18T17:26:11;37.40;41.40
31639;DHT22;18248;51.522;7.020;2022-07-18T17:29:10;37.30;41.30
31639;DHT22;18248;51.522;7.020;2022-07-18T17:32:10;37.20;42.00
31639;DHT22;18248;51.522;7.020;2022-07-18T17:35:10;37.00;41.10
31639;DHT22;18248;51.522;7.020;2022-07-18T17:38:11;36.80;41.30
31639;DHT22;18248;51.522;7.020;2022-07-18T17:41:10;36.70;41.60
31639;DHT22;18248;51.522;7.020;2022-07-18T17:44:09;36.50;41.80
31639;DHT22;18248;51.522;7.020;2022-07-18T17:47:08;36.50;41.70
31639;DHT22;18248;51.522;7.020;2022-07-18T17:50:12;36.40;41.90
31639;DHT22;18248;51.522;7.020;2022-07-18T17:53:12;36.40;41.40
31639;DHT22;18248;51.522;7.020;2022-07-18T17:56:11;36.40;41.10
31639;DHT22;18248;51.522;7.020;2022-07-18T17:59:13;36.30;41.20
31639;DHT22;18248;51.522;7.020;2022-07-18T18:02:12;36.30;40.80
31639;DHT22;18248;51.522;7.020;2022-07-18T18:05:11;36.20;43.10
31639;DHT22;18248;51.522;7.020;2022-07-18T18:08:10;36.20;43.60
31639;DHT22;18248;51.522;7.020;2022-07-18T18:11:08;36.10;43.90
31639;DHT22;18248;51.522;7.020;2022-07-18T18:14:07;36.00;43.60
31639;DHT22;18248;51.522;7.020;2022-07-18T18:17:06;35.90;44.50
31639;DHT22;18248;51.522;7.020;2022-07-18T18:20:05;35.80;44.00
31639;DHT22;18248;51.522;7.020;2022-07-18T18:23:04;35.70;43.70
31639;DHT22;18248;51.522;7.020;2022-07-18T18:26:03;35.60;43.60
31639;DHT22;18248;51.522;7.020;2022-07-18T18:29:03;35.50;44.80
31639;DHT22;18248;51.522;7.020;2022-07-18T18:32:02;35.40;44.60
31639;DHT22;18248;51.522;7.020;2022-07-18T18:35:00;35.20;46.10
31639;DHT22;18248;51.522;7.020;2022-07-18T18:37:59;35.10;46.30
31639;DHT22;18248;51.522;7.020;2022-07-18T18:40:57;35.00;46.60
31639;DHT22;18248;51.522;7.020;2022-07-18T18:43:56;34.80;46.30
31639;DHT22;18248;51.522;7.020;2022-07-18T18:46:54;34.70;47.20
31639;DHT22;18248;51.522;7.020;2022-07-18T18:49:54;34.50;46.50
31639;DHT22;18248;51.522;7.020;2022-07-18T18:52:52;34.30;47.40
31639;DHT22;18248;51.522;7.020;2022-07-18T18:55:51;34.20;48.30
31639;DHT22;18248;51.522;7.020;2022-07-18T18:58:49;33.90;48.60
31639;DHT22;18248;51.522;7.020;2022-07-18T19:01:48;33.80;49.10
31639;DHT22;18248;51.522;7.020;2022-07-18T19:04:47;33.50;49.00
31639;DHT22;18248;51.522;7.020;2022-07-18T19:07:46;33.20;49.80
31639;DHT22;18248;51.522;7.020;2022-07-18T19:10:45;32.90;50.60